Time;durP1;ratioP1;P1;durP2;ratioP2;P2;SDS_P1;SDS_P2;PMS_P1;PMS_P2;Temp;Humidity;BMP_temperature;BMP_pressure;BME280_temperature;BME280_humidity;BME280_pressure;Samples;Min_cycle;Max_cycle;Signal;HPM_P1;HPM_P2
2022/09/02 00:00:59;;;;;;;6.03;5.53;;;21.40;93.80;;;;;;4953794;28;20446;-68
2022/09/02 00:03:30;;;;;;;5.17;4.77;;;21.40;93.80;;;;;;4956064;28;20456;-68
2022/09/02 00:05:56;;;;;;;5.43;4.93;;;21.30;94.00;;;;;;4959311;28;20441;-68
2022/09/02 00:08:22;;;;;;;5.77;5.00;;;21.30;94.00;;;;;;4950535;28;20449;-68
2022/09/02 00:10:48;;;;;;;6.60;6.00;;;21.30;94.00;;;;;;4960480;28;20478;-67
2022/09/02 00:13:18;;;;;;;6.10;5.63;;;21.30;94.00;;;;;;4950400;28;20454;-68
2022/09/02 00:15:44;;;;;;;5.97;5.47;;;21.30;94.30;;;;;;4952370;28;20454;-68
2022/09/02 00:18:11;;;;;;;5.73;5.13;;;21.30;94.30;;;;;;4953458;28;20434;-68
2022/09/02 00:20:38;;;;;;;6.60;6.00;;;21.20;94.50;;;;;;4951444;28;20442;-68
2022/09/02 00:23:04;;;;;;;5.70;5.20;;;21.30;94.50;;;;;;4952370;28;20523;-68
2022/09/02 00:25:30;;;;;;;7.27;5.37;;;21.20;94.60;;;;;;4953928;28;20435;-68
2022/09/02 00:27:56;;;;;;;6.03;5.47;;;21.10;94.90;;;;;;4954813;28;20557;-69
2022/09/02 00:30:22;;;;;;;5.67;5.13;;;21.10;94.90;;;;;;4954883;28;20182;-69
2022/09/02 00:32:48;;;;;;;7.00;5.27;;;21.10;95.00;;;;;;4953528;28;20442;-69
2022/09/02 00:35:14;;;;;;;5.67;5.13;;;21.10;95.10;;;;;;4935036;28;20462;-69
2022/09/02 00:37:40;;;;;;;5.57;5.07;;;21.10;95.20;;;;;;4950889;28;20269;-69
2022/09/02 00:40:07;;;;;;;6.17;5.63;;;21.10;95.40;;;;;;4953555;28;20221;-69
2022/09/02 00:42:33;;;;;;;5.87;5.37;;;21.00;95.60;;;;;;4953615;28;20203;-69
2022/09/02 00:44:58;;;;;;;5.77;5.27;;;21.00;95.90;;;;;;4951050;28;20458;-69
2022/09/02 00:47:24;;;;;;;5.63;5.13;;;20.90;95.90;;;;;;4953416;28;20442;-68
2022/09/02 00:49:53;;;;;;;5.73;5.23;;;20.90;96.10;;;;;;4952731;28;20175;-69
2022/09/02 00:52:24;;;;;;;5.97;5.47;;;20.90;96.30;;;;;;4953510;28;20610;-69
2022/09/02 00:55:03;;;;;;;5.17;4.77;;;20.90;96.30;;;;;;4952665;28;20462;-69
2022/09/02 00:57:39;;;;;;;6.67;5.67;;;20.80;96.60;;;;;;4953479;28;20538;-69
2022/09/02 01:00:10;;;;;;;5.57;5.07;;;20.80;96.60;;;;;;4950523;28;20448;-69
2022/09/02 01:02:40;;;;;;;6.17;5.27;;;20.80;96.90;;;;;;4954755;28;21006;-69
2022/09/02 01:05:08;;;;;;;6.00;5.50;;;20.80;97.00;;;;;;4951278;28;20504;-69
2022/09/02 01:07:37;;;;;;;6.70;5.30;;;20.80;97.00;;;;;;4953228;28;20470;-70
2022/09/02 01:10:08;;;;;;;5.70;5.20;;;20.80;97.20;;;;;;4947972;28;21325;-69
2022/09/02 01:12:34;;;;;;;9.20;5.90;;;20.80;97.50;;;;;;4953938;28;20442;-69
2022/09/02 01:15:01;;;;;;;5.70;5.10;;;20.70;97.60;;;;;;4953344;28;20481;-68
2022/09/02 01:17:27;;;;;;;6.03;5.43;;;20.70;97.60;;;;;;4935910;28;20975;-69
2022/09/02 01:20:02;;;;;;;6.53;5.73;;;20.70;97.70;;;;;;4949663;28;20444;-68
2022/09/02 01:22:31;;;;;;;5.97;5.47;;;20.70;97.80;;;;;;4952219;28;20536;-69
2022/09/02 01:25:03;;;;;;;6.07;5.57;;;20.60;97.80;;;;;;4950674;28;20472;-68
2022/09/02 01:27:29;;;;;;;6.77;6.17;;;20.60;98.10;;;;;;4954462;28;21266;-68
2022/09/02 01:29:57;;;;;;;5.80;5.20;;;20.60;98.20;;;;;;4937043;28;20441;-68
2022/09/02 01:32:25;;;;;;;5.80;5.30;;;20.60;98.30;;;;;;4950029;28;20529;-69
2022/09/02 01:34:51;;;;;;;6.53;5.70;;;20.60;98.60;;;;;;4939301;28;20472;-68
2022/09/02 01:37:18;;;;;;;6.40;5.60;;;20.50;98.70;;;;;;4947244;28;20446;-68
2022/09/02 01:39:44;;;;;;;6.17;5.67;;;20.50;99.30;;;;;;4935538;28;20827;-68
2022/09/02 01:42:10;;;;;;;5.70;5.23;;;20.50;99.30;;;;;;4955640;28;20471;-68
2022/09/02 01:44:42;;;;;;;6.63;6.03;;;20.50;99.40;;;;;;4957646;28;20547;-68
2022/09/02 01:47:12;;;;;;;6.10;5.53;;;20.40;99.40;;;;;;4955096;28;20438;-69
2022/09/02 01:49:38;;;;;;;6.03;5.47;;;20.40;99.60;;;;;;4957043;28;20442;-69
2022/09/02 01:52:04;;;;;;;6.00;5.50;;;20.40;99.80;;;;;;4955308;28;20445;-68
2022/09/02 01:54:30;;;;;;;6.30;5.23;;;20.30;99.70;;;;;;4952439;28;20572;-68
2022/09/02 01:56:55;;;;;;;5.40;4.90;;;20.30;99.90;;;;;;4957785;28;20461;-69
2022/09/02 01:59:21;;;;;;;6.27;5.67;;;20.30;99.90;;;;;;4956527;28;20193;-69
2022/09/02 02:01:47;;;;;;;5.80;5.30;;;20.30;99.90;;;;;;4954397;28;20273;-68
2022/09/02 02:04:12;;;;;;;5.37;4.97;;;20.30;99.90;;;;;;4952042;28;20730;-69
2022/09/02 02:06:44;;;;;;;5.63;5.13;;;20.30;99.90;;;;;;4953727;28;21008;-68
2022/09/02 02:09:10;;;;;;;5.10;4.70;;;20.30;99.90;;;;;;4955692;28;20202;-68
2022/09/02 02:11:37;;;;;;;6.23;5.63;;;20.20;99.90;;;;;;4952394;28;20446;-68
2022/09/02 02:14:03;;;;;;;5.67;5.07;;;20.20;99.90;;;;;;4934652;28;20473;-68
2022/09/02 02:16:29;;;;;;;5.87;5.30;;;20.20;99.90;;;;;;4953650;28;20963;-68
2022/09/02 02:18:55;;;;;;;6.53;5.23;;;20.20;99.90;;;;;;4927003;28;20457;-68
2022/09/02 02:21:21;;;;;;;6.37;5.83;;;20.20;99.90;;;;;;4953520;28;20911;-68
2022/09/02 02:23:47;;;;;;;5.80;5.23;;;20.10;99.90;;;;;;4954067;28;20213;-68
2022/09/02 02:26:13;;;;;;;7.70;5.80;;;20.10;99.90;;;;;;4953855;28;20886;-68
2022/09/02 02:28:38;;;;;;;5.80;5.23;;;20.10;99.90;;;;;;4956481;28;20445;-68
2022/09/02 02:31:05;;;;;;;5.43;5.00;;;20.10;99.90;;;;;;4955753;28;20190;-68
2022/09/02 02:33:32;;;;;;;6.17;5.67;;;20.00;99.90;;;;;;4954581;28;20211;-68
2022/09/02 02:35:58;;;;;;;7.07;6.10;;;20.00;99.90;;;;;;4953505;28;20561;-68
2022/09/02 02:38:24;;;;;;;10.30;5.23;;;20.00;99.90;;;;;;4954690;28;20446;-68
2022/09/02 02:40:56;;;;;;;6.33;5.77;;;20.00;99.90;;;;;;4952116;28;20510;-69
2022/09/02 02:43:25;;;;;;;7.27;6.57;;;19.90;99.90;;;;;;4947891;28;20237;-69
2022/09/02 02:45:52;;;;;;;6.43;5.57;;;20.00;99.90;;;;;;4957087;28;20582;-69
2022/09/02 02:48:18;;;;;;;5.63;5.13;;;19.90;99.90;;;;;;4955259;28;20445;-69
2022/09/02 02:50:44;;;;;;;5.80;5.30;;;19.90;99.90;;;;;;4953025;28;20449;-69
2022/09/02 02:53:11;;;;;;;10.67;5.20;;;19.90;99.90;;;;;;4953690;28;20231;-69
2022/09/02 02:55:37;;;;;;;6.10;5.50;;;19.80;99.90;;;;;;4949991;28;20304;-69
2022/09/02 02:58:04;;;;;;;6.17;5.67;;;19.80;99.90;;;;;;4951875;28;20434;-68
2022/09/02 03:00:32;;;;;;;6.00;5.50;;;19.80;99.90;;;;;;4954961;28;20435;-68
2022/09/02 03:03:04;;;;;;;6.37;5.77;;;19.80;99.90;;;;;;4953846;28;20474;-67
2022/09/02 03:05:34;;;;;;;6.07;5.50;;;19.80;99.90;;;;;;4954896;28;20503;-67
2022/09/02 03:08:01;;;;;;;6.07;5.13;;;19.70;99.90;;;;;;4952719;28;20447;-68
2022/09/02 03:10:27;;;;;;;5.93;5.43;;;19.70;99.90;;;;;;4953615;28;20485;-68
2022/09/02 03:12:53;;;;;;;6.20;5.50;;;19.70;99.90;;;;;;4953985;28;20545;-68
2022/09/02 03:15:19;;;;;;;5.17;4.77;;;19.70;99.90;;;;;;4955946;28;20533;-68
2022/09/02 03:17:46;;;;;;;6.10;5.50;;;19.70;99.90;;;;;;4956264;28;21039;-68
2022/09/02 03:20:14;;;;;;;6.27;5.77;;;19.70;99.90;;;;;;4951422;28;20481;-68
2022/09/02 03:22:49;;;;;;;5.50;5.00;;;19.70;99.90;;;;;;4951830;28;20474;-68
2022/09/02 03:25:18;;;;;;;5.80;5.20;;;19.60;99.90;;;;;;4954239;28;20477;-68
2022/09/02 03:27:44;;;;;;;5.87;5.47;;;19.60;99.90;;;;;;4941098;28;20450;-68
2022/09/02 03:30:17;;;;;;;5.90;5.40;;;19.50;99.90;;;;;;4957012;28;20448;-68
2022/09/02 03:32:43;;;;;;;5.80;5.30;;;19.50;99.90;;;;;;4926409;28;20453;-68
2022/09/02 03:35:13;;;;;;;5.87;5.27;;;19.50;99.90;;;;;;4938045;28;20494;-68
2022/09/02 03:37:39;;;;;;;5.17;4.67;;;19.50;99.90;;;;;;4950955;28;20819;-68
2022/09/02 03:40:08;;;;;;;5.60;5.10;;;19.50;99.90;;;;;;4953616;28;20441;-68
2022/09/02 03:42:33;;;;;;;5.03;4.53;;;19.50;99.90;;;;;;4956123;28;20548;-68
2022/09/02 03:44:59;;;;;;;5.37;4.90;;;19.50;99.90;;;;;;4940659;28;20595;-68
2022/09/02 03:47:27;;;;;;;8.07;5.57;;;19.50;99.90;;;;;;4956243;28;20227;-68
2022/09/02 03:49:54;;;;;;;5.47;4.87;;;19.40;99.90;;;;;;4942129;28;20608;-69
2022/09/02 03:52:19;;;;;;;6.03;5.53;;;19.40;99.90;;;;;;4954006;28;20530;-68
2022/09/02 03:54:45;;;;;;;5.83;5.33;;;19.40;99.90;;;;;;4952568;28;20557;-68
2022/09/02 03:57:12;;;;;;;8.83;4.90;;;19.40;99.90;;;;;;4953090;28;20191;-68
2022/09/02 03:59:37;;;;;;;5.97;4.90;;;19.40;99.90;;;;;;4950529;28;20198;-68
2022/09/02 04:02:03;;;;;;;7.63;4.83;;;19.30;99.90;;;;;;4954851;28;20972;-68
2022/09/02 04:04:29;;;;;;;5.90;5.40;;;19.40;99.90;;;;;;4950725;28;20466;-68
2022/09/02 04:06:56;;;;;;;6.30;5.70;;;19.30;99.90;;;;;;4950377;28;20468;-69
2022/09/02 04:09:22;;;;;;;5.33;4.93;;;19.30;99.90;;;;;;4952803;28;20179;-68
2022/09/02 04:11:47;;;;;;;5.53;5.00;;;19.30;99.90;;;;;;4954488;28;20470;-68
2022/09/02 04:14:14;;;;;;;5.73;4.80;;;19.20;99.90;;;;;;4950074;28;20671;-68
2022/09/02 04:23:24;;;;;;;5.97;4.53;;;19.20;99.90;;;;;;4950421;28;20520;-68
2022/09/02 04:25:49;;;;;;;6.20;4.93;;;19.20;99.90;;;;;;4956924;28;20935;-68
2022/09/02 04:28:15;;;;;;;5.73;5.23;;;19.20;99.90;;;;;;4952448;28;20443;-68
2022/09/02 04:30:42;;;;;;;8.57;5.00;;;19.10;99.90;;;;;;4956394;28;20194;-68
2022/09/02 04:33:08;;;;;;;6.40;4.83;;;19.10;99.90;;;;;;4950890;28;20195;-68
2022/09/02 04:35:36;;;;;;;5.37;4.87;;;19.10;99.90;;;;;;4951140;28;20465;-68
2022/09/02 04:38:02;;;;;;;5.67;5.00;;;19.10;99.90;;;;;;4951725;28;20487;-67
2022/09/02 04:40:27;;;;;;;5.73;5.20;;;19.00;99.90;;;;;;4952243;28;20636;-67
2022/09/02 04:42:54;;;;;;;5.50;5.03;;;19.00;99.90;;;;;;4951922;28;20684;-67
2022/09/02 04:45:20;;;;;;;5.10;4.60;;;19.00;99.90;;;;;;4948962;28;20289;-68
2022/09/02 04:47:45;;;;;;;5.80;5.10;;;19.00;99.90;;;;;;4950662;28;20585;-67
2022/09/02 04:50:11;;;;;;;5.63;5.13;;;19.00;99.90;;;;;;4953584;28;20187;-68
2022/09/02 04:52:37;;;;;;;5.10;4.60;;;19.00;99.90;;;;;;4952539;28;20198;-68
2022/09/02 04:55:04;;;;;;;5.20;4.80;;;19.00;99.90;;;;;;4949320;28;20330;-67
2022/09/02 04:57:29;;;;;;;5.03;4.57;;;19.00;99.90;;;;;;4951663;28;20319;-68
2022/09/02 04:59:56;;;;;;;5.77;4.80;;;18.90;99.90;;;;;;4954356;28;20851;-68
2022/09/02 05:02:21;;;;;;;5.53;4.50;;;18.90;99.90;;;;;;4949228;28;20215;-70
2022/09/02 05:04:47;;;;;;;5.30;4.80;;;18.90;99.90;;;;;;4952568;28;20517;-67
2022/09/02 05:07:14;;;;;;;5.20;4.73;;;18.90;99.90;;;;;;4950384;28;20203;-67
2022/09/02 05:09:40;;;;;;;5.17;4.50;;;18.90;99.90;;;;;;4949903;28;20439;-67
2022/09/02 05:12:06;;;;;;;5.00;4.60;;;18.90;99.90;;;;;;4952217;28;21142;-68
2022/09/02 05:14:32;;;;;;;4.77;4.37;;;18.90;99.90;;;;;;4957647;28;20469;-68
2022/09/02 05:16:59;;;;;;;6.77;5.07;;;18.90;99.90;;;;;;4950952;28;20437;-68
2022/09/02 05:19:25;;;;;;;5.20;4.60;;;18.90;99.90;;;;;;4956538;28;20187;-67
2022/09/02 05:21:54;;;;;;;5.57;5.07;;;18.80;99.90;;;;;;4952852;28;20551;-67
2022/09/02 05:24:19;;;;;;;8.87;6.10;;;18.90;99.90;;;;;;4953700;28;20501;-68
2022/09/02 05:26:45;;;;;;;5.17;4.67;;;18.90;99.90;;;;;;4957847;28;20439;-68
2022/09/02 05:29:12;;;;;;;7.37;4.43;;;18.90;99.90;;;;;;4955680;28;20182;-67
2022/09/02 05:31:40;;;;;;;4.53;4.13;;;18.90;99.90;;;;;;4957262;28;20183;-67
2022/09/02 05:34:07;;;;;;;6.33;5.00;;;18.90;99.90;;;;;;4956045;28;20492;-68
2022/09/02 05:36:33;;;;;;;4.50;4.10;;;18.90;99.90;;;;;;4954109;28;20895;-68
2022/09/02 05:38:59;;;;;;;5.10;4.60;;;18.90;99.90;;;;;;4936107;28;20991;-67
2022/09/02 05:41:26;;;;;;;5.50;4.43;;;18.90;99.90;;;;;;4951585;28;20569;-67
2022/09/02 05:43:55;;;;;;;5.50;5.00;;;18.80;99.90;;;;;;4954513;28;20453;-67
2022/09/02 05:46:22;;;;;;;6.50;4.80;;;18.90;99.90;;;;;;4953829;28;20531;-68
2022/09/02 05:51:40;;;;;;;4.83;4.30;;;18.90;99.90;;;;;;4948577;28;20448;-67
2022/09/02 05:54:11;;;;;;;4.93;4.50;;;18.90;99.90;;;;;;4933953;28;20477;-68
2022/09/02 05:56:39;;;;;;;4.93;4.30;;;18.90;99.90;;;;;;4950812;28;20453;-67
2022/09/02 05:59:06;;;;;;;4.80;4.30;;;18.90;99.90;;;;;;4951607;28;20772;-67
2022/09/02 06:01:33;;;;;;;4.50;4.07;;;18.90;99.90;;;;;;4950445;28;20558;-67
2022/09/02 06:04:01;;;;;;;4.63;4.23;;;18.90;99.90;;;;;;4952753;28;20487;-68
2022/09/02 06:06:30;;;;;;;4.57;4.17;;;18.90;99.90;;;;;;4941556;28;20477;-68
2022/09/02 06:08:57;;;;;;;5.37;4.17;;;18.90;99.90;;;;;;4951087;28;20443;-68
2022/09/02 06:11:23;;;;;;;7.13;4.53;;;18.90;99.90;;;;;;4947760;28;20451;-69
2022/09/02 06:13:51;;;;;;;5.30;4.20;;;18.90;99.90;;;;;;4945071;28;20510;-70
2022/09/02 06:16:19;;;;;;;6.00;4.30;;;18.90;99.90;;;;;;4950267;28;20434;-72
2022/09/02 06:18:46;;;;;;;6.03;4.40;;;19.00;99.90;;;;;;4949855;28;20445;-68
2022/09/02 06:21:12;;;;;;;5.50;4.40;;;19.00;99.90;;;;;;4949753;28;20474;-68
2022/09/02 06:23:39;;;;;;;4.90;4.50;;;19.10;99.90;;;;;;4951050;28;21798;-67
2022/09/02 06:26:07;;;;;;;4.97;4.50;;;19.10;99.90;;;;;;4952144;28;20505;-68
2022/09/02 06:28:33;;;;;;;9.60;4.87;;;19.10;99.90;;;;;;4937234;28;20845;-69
2022/09/02 06:31:04;;;;;;;5.97;4.73;;;19.10;99.90;;;;;;4954940;28;20477;-69
2022/09/02 06:33:30;;;;;;;4.50;3.93;;;19.10;99.90;;;;;;4953211;28;20862;-70
2022/09/02 06:35:56;;;;;;;6.63;4.33;;;19.20;99.90;;;;;;4938898;28;20455;-68
2022/09/02 06:38:21;;;;;;;6.47;4.23;;;19.20;99.90;;;;;;4950641;28;20195;-68
2022/09/02 06:40:55;;;;;;;4.97;4.37;;;19.20;99.90;;;;;;4953726;28;20242;-68
2022/09/02 06:43:20;;;;;;;4.33;3.93;;;19.30;99.90;;;;;;4951049;28;20281;-68
2022/09/02 06:45:47;;;;;;;6.13;4.20;;;19.30;99.90;;;;;;4944456;28;20525;-69
2022/09/02 06:48:13;;;;;;;4.47;4.07;;;19.30;99.90;;;;;;4951571;28;20526;-68
2022/09/02 06:50:44;;;;;;;6.83;6.13;;;19.30;99.90;;;;;;4951735;28;20274;-69
2022/09/02 06:53:10;;;;;;;6.53;5.80;;;19.40;99.90;;;;;;4952452;28;20726;-69
2022/09/02 06:55:38;;;;;;;4.80;4.00;;;19.40;99.90;;;;;;4938058;28;20538;-68
2022/09/02 06:58:04;;;;;;;4.80;3.77;;;19.40;99.90;;;;;;4937280;28;20443;-67
2022/09/02 07:00:31;;;;;;;6.40;3.90;;;19.50;99.90;;;;;;4950840;28;20789;-67
2022/09/02 07:05:42;;;;;;;4.93;4.13;;;19.50;99.90;;;;;;4951448;28;20423;-67
2022/09/02 07:08:08;;;;;;;4.27;3.87;;;19.60;99.90;;;;;;4953750;28;20422;-66
2022/09/02 07:10:40;;;;;;;5.40;3.53;;;19.60;99.90;;;;;;4950822;28;20218;-67
2022/09/02 07:13:07;;;;;;;4.40;4.00;;;19.70;99.90;;;;;;4952170;28;20187;-66
2022/09/02 07:15:33;;;;;;;4.70;4.00;;;19.70;99.90;;;;;;4950315;28;20458;-66
2022/09/02 07:18:00;;;;;;;4.47;3.67;;;19.70;99.90;;;;;;4955412;28;20448;-67
2022/09/02 07:20:26;;;;;;;5.23;4.47;;;19.80;99.90;;;;;;4944780;28;20439;-67
2022/09/02 07:22:52;;;;;;;4.40;4.00;;;19.90;99.90;;;;;;4955782;28;20605;-67
2022/09/02 07:25:18;;;;;;;4.20;3.80;;;19.90;99.90;;;;;;4948873;28;20976;-67
2022/09/02 07:27:44;;;;;;;8.40;7.50;;;19.90;99.90;;;;;;4956422;28;20835;-68
2022/09/02 07:30:11;;;;;;;6.13;5.53;;;19.90;99.90;;;;;;4937656;28;20455;-68
2022/09/02 07:32:37;;;;;;;5.70;4.10;;;19.90;99.90;;;;;;4953958;28;20430;-67
2022/09/02 07:35:05;;;;;;;4.47;4.07;;;20.00;99.90;;;;;;4955034;28;20852;-66
2022/09/02 07:37:33;;;;;;;5.90;4.30;;;20.00;99.90;;;;;;4948556;28;20470;-67
2022/09/02 07:40:06;;;;;;;5.00;4.40;;;20.10;99.90;;;;;;4953587;28;20441;-67
2022/09/02 07:42:32;;;;;;;4.47;3.93;;;20.10;99.90;;;;;;4936608;28;20482;-67
2022/09/02 07:44:58;;;;;;;7.23;4.50;;;20.20;99.90;;;;;;4952667;28;20473;-69
2022/09/02 07:47:24;;;;;;;6.20;4.20;;;20.20;99.90;;;;;;4956820;28;20228;-70
2022/09/02 07:49:50;;;;;;;5.37;4.30;;;20.30;99.90;;;;;;4951724;28;20698;-70
2022/09/02 07:52:16;;;;;;;5.00;3.97;;;20.30;99.90;;;;;;4949895;28;20666;-68
2022/09/02 07:54:42;;;;;;;4.10;3.70;;;20.40;99.90;;;;;;4949959;28;20516;-67
2022/09/02 07:57:07;;;;;;;4.63;3.73;;;20.40;99.90;;;;;;4953940;28;20195;-70
2022/09/02 07:59:34;;;;;;;6.90;3.33;;;20.50;99.90;;;;;;4953859;28;20242;-69
2022/09/02 08:01:59;;;;;;;4.47;4.07;;;20.50;99.90;;;;;;4954926;28;20253;-69
2022/09/02 08:04:25;;;;;;;4.10;3.70;;;20.60;99.90;;;;;;4955299;28;20465;-69
2022/09/02 08:06:53;;;;;;;5.07;3.67;;;20.60;99.90;;;;;;4955213;28;20194;-70
2022/09/02 08:09:20;;;;;;;4.20;3.67;;;20.70;99.90;;;;;;4952034;28;20469;-69
2022/09/02 08:11:48;;;;;;;5.17;3.30;;;20.80;99.90;;;;;;4948605;28;20426;-67
2022/09/02 08:14:17;;;;;;;4.17;3.50;;;20.90;99.90;;;;;;4950109;28;20947;-67
2022/09/02 08:16:44;;;;;;;6.03;3.90;;;20.90;99.90;;;;;;4952833;28;20528;-66
2022/09/02 08:19:11;;;;;;;4.90;3.43;;;21.00;99.90;;;;;;4948672;28;20441;-68
2022/09/02 08:21:36;;;;;;;3.90;3.07;;;21.00;99.90;;;;;;4952667;28;20506;-68
2022/09/02 08:24:02;;;;;;;4.77;3.87;;;21.00;99.90;;;;;;4933566;28;20454;-67
2022/09/02 08:26:28;;;;;;;4.97;3.70;;;21.10;99.90;;;;;;4949006;28;20187;-68
2022/09/02 08:28:54;;;;;;;4.87;3.37;;;21.10;99.90;;;;;;4950907;28;20423;-68
2022/09/02 08:31:20;;;;;;;4.70;3.80;;;21.10;99.90;;;;;;4953723;28;20346;-67
2022/09/02 08:33:45;;;;;;;3.80;3.40;;;21.10;99.90;;;;;;4947769;28;20470;-69
2022/09/02 08:36:13;;;;;;;5.90;3.43;;;21.20;99.90;;;;;;4949739;28;20191;-68
2022/09/02 08:38:40;;;;;;;4.00;3.60;;;21.30;99.90;;;;;;4948756;28;20545;-70
2022/09/02 08:41:25;;;;;;;6.67;3.90;;;21.40;99.90;;;;;;4947570;28;20415;-68
2022/09/02 08:43:54;;;;;;;5.73;3.27;;;21.40;99.90;;;;;;4951649;28;20676;-66
2022/09/02 08:46:25;;;;;;;4.73;3.37;;;21.50;99.90;;;;;;4949736;28;20980;-66
2022/09/02 08:49:09;;;;;;;3.57;3.27;;;21.50;99.90;;;;;;4951216;28;20868;-68
2022/09/02 08:51:56;;;;;;;3.80;3.40;;;21.60;99.90;;;;;;4952938;28;20438;-69
2022/09/02 08:54:29;;;;;;;8.30;5.43;;;21.60;99.90;;;;;;4953794;28;20470;-66
2022/09/02 08:56:55;;;;;;;9.37;8.33;;;21.70;99.90;;;;;;4956500;28;20998;-67
2022/09/02 08:59:26;;;;;;;7.00;6.37;;;21.70;99.90;;;;;;4950464;28;21030;-68
2022/09/02 09:02:00;;;;;;;4.10;3.70;;;21.80;99.90;;;;;;4954802;28;20542;-68
2022/09/02 09:04:50;;;;;;;7.87;4.30;;;21.80;99.90;;;;;;4950431;28;20561;-67
2022/09/02 09:07:37;;;;;;;4.63;3.43;;;21.90;99.90;;;;;;4952779;28;20432;-68
2022/09/02 09:10:02;;;;;;;4.43;3.33;;;22.00;99.90;;;;;;4953448;28;20421;-71
2022/09/02 09:12:46;;;;;;;3.70;2.97;;;22.10;99.90;;;;;;4960296;28;21154;-71
2022/09/02 09:15:17;;;;;;;5.70;3.23;;;22.10;99.60;;;;;;4955382;28;20215;-71
2022/09/02 09:17:57;;;;;;;4.07;3.77;;;22.20;98.90;;;;;;4958334;28;20606;-71
2022/09/02 09:20:36;;;;;;;3.90;3.47;;;22.20;98.60;;;;;;4956008;28;20425;-71
2022/09/02 09:23:24;;;;;;;3.83;3.23;;;22.30;98.40;;;;;;4958354;28;20469;-70
2022/09/02 09:25:54;;;;;;;6.10;3.87;;;22.40;98.40;;;;;;4957594;28;20442;-70
2022/09/02 09:28:20;;;;;;;4.10;3.20;;;22.40;98.40;;;;;;4956832;28;20452;-69
2022/09/02 09:30:45;;;;;;;3.53;3.23;;;22.40;98.40;;;;;;4944301;28;20446;-69
2022/09/02 09:33:16;;;;;;;8.30;3.23;;;22.50;97.80;;;;;;4958221;28;20489;-69
2022/09/02 09:35:50;;;;;;;7.70;3.10;;;22.50;97.60;;;;;;4956147;28;20199;-69
2022/09/02 09:38:29;;;;;;;5.50;3.20;;;22.60;97.20;;;;;;4958639;28;20789;-68
2022/09/02 09:41:20;;;;;;;5.57;3.63;;;22.60;96.50;;;;;;4958742;28;20560;-70
2022/09/02 09:43:46;;;;;;;4.10;3.40;;;22.70;96.60;;;;;;4952688;28;20587;-71
2022/09/02 09:46:29;;;;;;;4.50;3.40;;;22.70;96.40;;;;;;4955318;28;20538;-71
2022/09/02 09:48:55;;;;;;;4.50;3.40;;;22.80;96.50;;;;;;4952055;28;20811;-71
2022/09/02 09:51:20;;;;;;;6.10;3.70;;;22.90;95.90;;;;;;4955360;28;20574;-71
2022/09/02 09:53:46;;;;;;;6.07;3.30;;;22.90;95.90;;;;;;4956361;28;20491;-71
2022/09/02 09:56:14;;;;;;;3.93;3.00;;;23.00;95.70;;;;;;4955681;28;20291;-71
2022/09/02 09:58:40;;;;;;;3.27;2.97;;;23.10;95.10;;;;;;4957820;28;20201;-71
2022/09/02 10:01:14;;;;;;;3.60;3.30;;;23.10;94.80;;;;;;4956291;28;20435;-71
2022/09/02 10:03:52;;;;;;;3.57;3.20;;;23.20;94.60;;;;;;4954986;28;20296;-71
2022/09/02 10:06:35;;;;;;;3.20;2.90;;;23.20;94.10;;;;;;4955814;28;20415;-72
2022/09/02 10:09:13;;;;;;;3.53;3.23;;;23.20;93.00;;;;;;4940663;28;20793;-72
2022/09/02 10:11:54;;;;;;;10.73;9.10;;;23.40;92.70;;;;;;4955740;28;20537;-71
2022/09/02 10:14:19;;;;;;;4.33;3.93;;;23.40;92.30;;;;;;4954129;28;20840;-71
2022/09/02 10:17:00;;;;;;;4.20;3.80;;;23.50;91.80;;;;;;4955117;28;20446;-72
2022/09/02 10:19:36;;;;;;;4.30;3.67;;;23.60;90.90;;;;;;4956212;28;20193;-71
2022/09/02 10:22:30;;;;;;;3.93;3.63;;;23.60;90.40;;;;;;4954906;28;20556;-71
2022/09/02 10:25:33;;;;;;;4.23;3.87;;;23.60;90.30;;;;;;4956263;28;20450;-72
2022/09/02 10:28:10;;;;;;;5.80;5.00;;;23.70;90.10;;;;;;4956534;28;21599;-71
2022/09/02 10:31:02;;;;;;;4.33;3.00;;;23.70;89.90;;;;;;4952621;28;20525;-71
2022/09/02 10:33:42;;;;;;;4.57;3.20;;;23.70;90.10;;;;;;4951677;28;20485;-71
2022/09/02 10:36:19;;;;;;;4.63;3.43;;;23.80;89.60;;;;;;4948388;28;20460;-71
2022/09/02 10:38:49;;;;;;;3.50;3.20;;;23.90;89.40;;;;;;4948140;28;21375;-72
2022/09/02 10:41:33;;;;;;;5.20;3.20;;;23.90;88.90;;;;;;4949944;28;20442;-68
2022/09/02 10:44:26;;;;;;;4.20;3.10;;;24.00;88.50;;;;;;4950517;28;20464;-67
2022/09/02 10:47:09;;;;;;;4.10;3.00;;;24.10;86.10;;;;;;4948289;28;20620;-68
2022/09/02 10:49:52;;;;;;;5.50;2.90;;;24.20;85.10;;;;;;4948564;28;20445;-69
2022/09/02 10:52:31;;;;;;;5.00;3.20;;;24.30;84.50;;;;;;4947262;28;20433;-68
2022/09/02 10:55:12;;;;;;;5.47;3.17;;;24.30;83.20;;;;;;4947560;28;20512;-69
2022/09/02 10:57:47;;;;;;;3.17;2.87;;;24.40;81.50;;;;;;4945779;28;20520;-68
2022/09/02 11:00:19;;;;;;;3.93;3.00;;;24.40;81.90;;;;;;4949439;28;20471;-68
2022/09/02 11:03:02;;;;;;;2.83;2.53;;;24.40;82.50;;;;;;4951218;28;20482;-67
2022/09/02 11:05:46;;;;;;;3.73;3.10;;;24.40;82.10;;;;;;4949823;28;20481;-69
2022/09/02 11:08:23;;;;;;;3.03;2.73;;;24.50;82.10;;;;;;4950897;28;20561;-69
2022/09/02 11:11:00;;;;;;;3.80;3.20;;;24.50;79.20;;;;;;4950678;28;20433;-69
2022/09/02 11:13:46;;;;;;;3.50;3.03;;;24.50;79.10;;;;;;4950608;28;20885;-68
2022/09/02 11:16:21;;;;;;;3.33;2.90;;;24.60;78.70;;;;;;4949145;28;20818;-70
2022/09/02 11:19:07;;;;;;;5.30;3.20;;;24.70;78.60;;;;;;4955126;28;20457;-70
2022/09/02 11:21:57;;;;;;;2.77;2.57;;;24.80;79.00;;;;;;4947435;28;21086;-70
2022/09/02 11:24:51;;;;;;;2.77;2.50;;;24.90;77.00;;;;;;4950072;28;20458;-70
2022/09/02 11:27:30;;;;;;;2.70;2.50;;;25.00;76.40;;;;;;4947160;28;20439;-69
2022/09/02 11:30:11;;;;;;;3.90;2.97;;;25.10;76.20;;;;;;4950425;28;20494;-69
2022/09/02 11:32:39;;;;;;;2.93;2.73;;;25.10;75.80;;;;;;4951122;28;20826;-71
2022/09/02 11:35:17;;;;;;;3.70;2.77;;;25.20;75.30;;;;;;4945924;28;20569;-69
2022/09/02 11:37:50;;;;;;;3.40;3.10;;;25.30;75.00;;;;;;4950538;28;20441;-69
2022/09/02 11:40:25;;;;;;;2.80;2.50;;;25.40;74.30;;;;;;4948594;28;20463;-69
2022/09/02 11:43:32;;;;;;;5.77;2.70;;;25.50;74.20;;;;;;4951505;28;20473;-69
2022/09/02 11:46:25;;;;;;;3.70;3.33;;;25.60;74.40;;;;;;4947130;28;20458;-70
2022/09/02 11:49:15;;;;;;;3.30;3.00;;;25.70;73.60;;;;;;4950422;28;20439;-69
2022/09/02 11:52:02;;;;;;;2.90;2.70;;;25.80;72.30;;;;;;4950258;28;20550;-69
2022/09/02 11:54:39;;;;;;;3.60;3.30;;;26.00;72.80;;;;;;4937319;28;20466;-69
2022/09/02 11:57:06;;;;;;;4.60;3.20;;;26.20;72.00;;;;;;4933096;28;20453;-69
2022/09/02 11:59:49;;;;;;;3.07;2.77;;;26.30;70.60;;;;;;4950390;28;20462;-69
2022/09/02 12:02:38;;;;;;;4.37;2.83;;;26.60;69.40;;;;;;4948262;28;20465;-69
2022/09/02 12:05:28;;;;;;;2.97;2.77;;;27.00;66.80;;;;;;4935551;28;20891;-70
2022/09/02 12:07:57;;;;;;;3.30;3.00;;;27.60;66.10;;;;;;4950524;28;20434;-69
2022/09/02 12:10:38;;;;;;;4.03;2.83;;;28.10;64.30;;;;;;4951075;28;20433;-69
2022/09/02 12:13:06;;;;;;;5.03;3.00;;;28.60;63.20;;;;;;4949100;28;20478;-70
2022/09/02 12:15:34;;;;;;;2.93;2.63;;;28.90;59.80;;;;;;4953023;28;20449;-71
2022/09/02 12:18:27;;;;;;;3.07;2.77;;;29.20;58.90;;;;;;4950538;28;20447;-70
2022/09/02 12:20:59;;;;;;;3.40;3.03;;;29.40;58.00;;;;;;4952078;28;20512;-70
2022/09/02 12:23:55;;;;;;;8.43;3.33;;;29.50;57.20;;;;;;4947546;28;20525;-69
2022/09/02 12:26:27;;;;;;;5.10;2.90;;;29.70;56.50;;;;;;4930870;28;20437;-68
2022/09/02 12:29:09;;;;;;;3.20;2.90;;;30.00;56.40;;;;;;4951901;28;20433;-68
2022/09/02 12:31:44;;;;;;;5.67;3.47;;;30.10;55.60;;;;;;4949970;28;20434;-68
2022/09/02 12:34:25;;;;;;;4.77;3.53;;;30.20;54.00;;;;;;4951266;28;20463;-68
2022/09/02 12:36:58;;;;;;;4.13;3.13;;;30.40;53.10;;;;;;4950176;28;20613;-68
2022/09/02 12:39:24;;;;;;;4.10;2.73;;;30.70;53.10;;;;;;4948302;28;21177;-69
2022/09/02 12:42:11;;;;;;;3.10;2.80;;;30.90;52.70;;;;;;4952628;28;20469;-69
2022/09/02 12:44:46;;;;;;;3.30;2.50;;;31.10;52.10;;;;;;4935624;28;20215;-69
2022/09/02 12:47:32;;;;;;;3.97;2.87;;;31.40;51.10;;;;;;4950213;28;20974;-69
2022/09/02 12:50:15;;;;;;;2.60;2.40;;;31.50;50.10;;;;;;4931807;28;20411;-69
2022/09/02 12:52:44;;;;;;;3.10;2.80;;;31.70;49.20;;;;;;4949080;28;20444;-69
2022/09/02 12:55:24;;;;;;;3.07;2.77;;;31.80;48.30;;;;;;4947757;28;20553;-69
2022/09/02 12:58:07;;;;;;;5.57;3.00;;;32.00;48.40;;;;;;4952585;28;20434;-69
2022/09/02 13:00:51;;;;;;;3.13;2.83;;;32.30;48.20;;;;;;4949723;28;20460;-69
2022/09/02 13:03:16;;;;;;;4.07;2.50;;;32.40;46.90;;;;;;4952651;28;20493;-69
2022/09/02 13:05:55;;;;;;;3.07;2.67;;;32.60;46.90;;;;;;4950811;28;20787;-69
2022/09/02 13:08:57;;;;;;;5.50;2.80;;;32.70;46.70;;;;;;4936344;28;20186;-68
2022/09/02 13:11:47;;;;;;;2.50;2.30;;;32.80;46.20;;;;;;4949961;28;20912;-68
2022/09/02 13:14:50;;;;;;;3.83;2.73;;;32.80;45.60;;;;;;4949645;28;20480;-69
2022/09/02 13:17:44;;;;;;;3.03;2.73;;;33.00;44.90;;;;;;4948226;28;20420;-70